Flight Track Log - Related Links

Times and Time Zones

All times are in EST time to prevent confusion due to time zone crossing. See the USC491 flight status page for this flight to view local times or setup timezone preferences in your user account.

Time Position Orientation Groundspeed Altitude Reporting Facility
EST Latitude Longitude Course Direction KTS MPH feet Rate Location/Type
Mon 10:56:29 PM 29.6539 -95.2844 326° Northwest 101 116 500  Level Houston Center
Mon 10:57:42 PM 29.6856 -95.3094 326° Northwest 109 125 1,900 1,075 Climbing Houston Center
Mon 10:58:15 PM 29.6956 -95.3169 327° Northwest 107 123 2,400 984 Climbing Houston Center
Mon 10:58:43 PM 29.7103 -95.3281 327° Northwest 113 130 2,900 885 Climbing Houston Center
Mon 10:59:16 PM 29.7231 -95.3378 327° Northwest 112 129 3,300 885 Climbing Houston Center
Mon 10:59:44 PM 29.7400 -95.3533 321° Northwest 139 160 3,800 885 Climbing Houston Center
Mon 11:00:17 PM 29.7536 -95.3628 329° Northwest 126 145 4,200 984 Climbing Houston Center
Mon 11:00:45 PM 29.7714 -95.3761 327° Northwest 131 151 4,800 885 Climbing Houston Center
Mon 11:01:18 PM 29.7853 -95.3839 334° Northwest 131 151 5,100 800 Climbing Houston Center
Mon 11:01:45 PM 29.8086 -95.3908 346° North 130 150 5,600 787 Climbing Houston Center
Mon 11:02:19 PM 29.8200 -95.3958 339° North 129 148 5,900 764 Climbing Houston Center
Mon 11:02:40 PM 29.8369 -95.4019 343° North 132 152 6,300 787 Climbing Houston Center
Mon 11:03:20 PM 29.8556 -95.4067 348° North 131 151 6,700 590 Climbing Houston Center
Mon 11:03:41 PM 29.8778 -95.4139 344° North 136 157 6,900 197 Climbing Houston Center
Mon 11:04:21 PM 29.9064 -95.4211 348° North 156 180 6,900  Level Houston Center
Mon 11:04:42 PM 29.9233 -95.4278 341° North 181 208 6,900  Level Houston Center
Mon 11:05:22 PM 29.9558 -95.4372 346° North 181 208 6,900  Level Houston Center
Mon 11:05:55 PM 29.9839 -95.4494 339° North 190 219 6,900  Level Houston Center
Mon 11:06:23 PM 30.0064 -95.4547 349° North 188 216 6,900  Level Houston Center
Mon 11:06:55 PM 30.0356 -95.4625 347° North 187 215 6,900 98 Level Houston Center
Mon 11:07:24 PM 30.0586 -95.4647 355° North 189 217 7,000  Climbing Houston Center
Mon 11:07:56 PM 30.0908 -95.4703 352° North 192 221 6,900 -98 Descending Houston Center
Mon 11:08:25 PM 30.1122 -95.4717 357° North 191 220 6,900  Level Houston Center
Mon 11:08:57 PM 30.1439 -95.4761 353° North 193 222 6,900 -98 Level Houston Center
Mon 11:09:26 PM 30.1658 -95.4781 356° North 192 221 6,800 -537 Descending Houston Center
Mon 11:10:04 PM 30.2033 -95.4836 353° North 202 232 6,300 -787 Descending Houston Center
Mon 11:10:27 PM 30.2228 -95.4850 356° North 204 235 6,000 -393 Descending Houston Center
Mon 11:11:05 PM 30.2650 -95.4931 351° North 210 242 5,900 -98 Descending Houston Center
Mon 11:11:28 PM 30.2797 -95.4967 348° North 205 236 5,900  Level Houston Center
Mon 11:12:29 PM 30.3308 -95.5114 346° North 190 219 5,900  Level Houston Center
Mon 11:13:30 PM 30.3786 -95.5308 341° North 183 211 5,900  Level Houston Center
Mon 11:14:31 PM 30.4275 -95.5525 339° North 188 216 5,900  Level Houston Center
Mon 11:15:32 PM 30.4758 -95.5758 337° Northwest 188 216 5,900  Level Houston Center
Mon 11:16:33 PM 30.5203 -95.6025 333° Northwest 182 209 5,900  Level Houston Center
Mon 11:17:33 PM 30.5667 -95.6306 332° Northwest 186 214 5,900  Level Houston Center
Mon 11:18:34 PM 30.6244 -95.6550 340° North 184 212 5,900 49 Level Houston Center
Mon 11:19:35 PM 30.6736 -95.6739 342° North 186 214 6,000  Climbing Houston Center
Mon 11:20:36 PM 30.7194 -95.6967 337° Northwest 193 222 5,900 -49 Descending Houston Center
Mon 11:21:37 PM 30.7636 -95.7261 330° Northwest 186 214 5,900  Level Houston Center
Mon 11:22:37 PM 30.8064 -95.7575 328° Northwest 183 211 5,900  Level Houston Center
Mon 11:23:38 PM 30.8497 -95.7894 328° Northwest 183 211 5,900  Level Houston Center
Mon 11:24:39 PM 30.8953 -95.8200 330° Northwest 187 215 5,900  Level Houston Center
Mon 11:25:40 PM 30.9383 -95.8508 328° Northwest 183 211 5,900  Level Houston Center
Mon 11:26:41 PM 30.9833 -95.8822 329° Northwest 187 215 5,900  Level Houston Center
Mon 11:27:42 PM 31.0383 -95.9142 334° Northwest 185 213 5,900  Level Houston Center
Mon 11:28:42 PM 31.0878 -95.9403 336° Northwest 191 220 5,900  Level Houston Center
Mon 11:29:43 PM 31.1358 -95.9650 336° Northwest 189 217 5,900  Level Houston Center
Mon 11:30:44 PM 31.1881 -95.9817 345° North 192 221 5,900  Level Houston Center
Mon 11:31:45 PM 31.2428 -95.9853 357° North 195 224 5,900 50 Level Houston Center
Mon 11:32:45 PM 31.2928 -96.0033 343° North 191 220 6,000  Climbing Houston Center
Mon 11:33:46 PM 31.3464 -96.0183 347° North 194 223 5,900 -49 Descending Houston Center
Mon 11:34:47 PM 31.4006 -96.0283 351° North 195 224 5,900  Level Houston Center
Mon 11:35:48 PM 31.4533 -96.0319 357° North 194 223 5,900  Level Houston Center
Mon 11:36:48 PM 31.5064 -96.0369 355° North 191 220 5,900  Level Houston Center
Mon 11:37:49 PM 31.5575 -96.0517 346° North 189 217 5,900  Level Houston Center
Mon 11:38:50 PM 31.6089 -96.0661 347° North 189 217 5,900  Level Houston Center
Mon 11:39:50 PM 31.6606 -96.0800 347° North 190 219 5,900 50 Level Houston Center
Mon 11:40:51 PM 31.7136 -96.0956 346° North 189 217 6,000  Climbing Houston Center
Mon 11:41:52 PM 31.7667 -96.1069 350° North 191 220 5,900  Descending Houston Center
Mon 11:42:52 PM 31.8222 -96.1131 355° North 196 226 6,000  Climbing Houston Center
Mon 11:43:53 PM 31.8764 -96.1192 355° North 194 223 5,900 -48 Descending Houston Center
Mon 11:44:56 PM 31.9300 -96.1292 351° North 193 222 5,900  Level Fort Worth Center
Mon 11:45:57 PM 31.9831 -96.1447 346° North 189 217 5,900  Level Fort Worth Center
Mon 11:46:58 PM 32.0331 -96.1675 339° North 192 221 5,900 49 Level Fort Worth Center
Mon 11:47:59 PM 32.0833 -96.1894 340° North 194 223 6,000  Climbing Fort Worth Center
Mon 11:48:59 PM 32.1361 -96.2081 343° North 198 228 5,900 -50 Descending Fort Worth Center
Mon 11:50:00 PM 32.1894 -96.2161 353° North 195 224 5,900  Level Fort Worth Center
Mon 11:51:01 PM 32.2447 -96.2419 338° Northwest 193 222 5,900  Level Fort Worth Center
Mon 11:52:02 PM 32.2931 -96.2769 329° Northwest 190 219 5,900  Level Fort Worth Center
Mon 11:53:03 PM 32.3403 -96.3069 332° Northwest 194 223 5,900 50 Level Fort Worth Center
Mon 11:54:03 PM 32.3894 -96.3358 334° Northwest 197 227 6,000  Climbing Fort Worth Center
Mon 11:55:04 PM 32.4347 -96.3706 327° Northwest 194 223 5,900 -197 Descending Fort Worth Center
Mon 11:56:05 PM 32.4833 -96.4025 331° Northwest 199 229 5,600 -443 Descending Fort Worth Center
Mon 11:57:06 PM 32.5350 -96.4408 328° Northwest 218 251 5,000 -347 Descending Fort Worth Center
Mon 11:58:06 PM 32.5867 -96.4700 335° Northwest 208 239 4,900 -50 Descending Fort Worth Center
Mon 11:59:07 PM 32.6397 -96.4992 335° Northwest 196 226 4,900  Level Fort Worth Center
Tue 12:00:08 AM 32.6892 -96.5317 331° Northwest 202 232 4,900  Level Fort Worth Center
Tue 12:01:09 AM 32.7364 -96.5639 330° Northwest 197 227 4,900 -295 Level Fort Worth Center
Tue 12:02:10 AM 32.7858 -96.5981 330° Northwest 203 234 4,300 -446 Descending Fort Worth Center
Tue 12:03:10 AM 32.8392 -96.6347 330° Northwest 218 251 4,000 -595 Descending Fort Worth Center
Tue 12:04:11 AM 32.8900 -96.6703 330° Northwest 214 246 3,100 -541 Descending Fort Worth Center
Tue 12:05:12 AM 32.9347 -96.7067 326° Northwest 193 222 2,900 -98 Descending Fort Worth Center
Tue 12:06:13 AM 32.9814 -96.7306 337° Northwest 169 194 2,900  Level Fort Worth Center
Tue 12:07:13 AM 33.0253 -96.7375 352° North 159 183 2,900  Level Fort Worth Center
Tue 12:08:14 AM 33.0672 -96.7578 338° Northwest 162 186 2,900  Level Fort Worth Center
Tue 12:09:15 AM 33.1064 -96.7825 332° Northwest 160 184 2,900 50 Level Fort Worth Center
Tue 12:10:15 AM 33.1450 -96.8078 331° Northwest 159 183 3,000  Climbing Fort Worth Center
Tue 12:11:16 AM 33.1433 -96.8553 268° West 154 177 2,900 -435 Descending Fort Worth Center
Tue 12:12:19 AM 33.1167 -96.8833 221° Southwest 129 148 2,100 -488 Descending Dallas / Fort Worth TRACON
Tue 12:13:19 AM 33.0833 -96.8833 180° South 111 128 1,900 -100 Descending Dallas / Fort Worth TRACON
Tue 12:14:19 AM 33.0667 -96.8667 140° Southeast 106 122 1,900  Level Dallas / Fort Worth TRACON
Tue 12:15:19 AM 33.1000 -96.8667 360° North 134 154 1,900  Level Dallas / Fort Worth TRACON
Tue 12:16:20 AM 33.1322 -96.8631 North 136 157 1,900  Level Fort Worth Center
Tue 12:17:20 AM 33.1500 -96.8858 313° West 145 167 1,900  Level Fort Worth Center
Tue 12:18:19 AM 33.1167 -96.8833 176° South 104 120 1,900  Level Dallas / Fort Worth TRACON
Tue 12:19:13 AM 33.1000 -96.8833 180° South 107 123 1,900  Level Dallas / Fort Worth TRACON
Tue 12:21:23 AM 33.0436 -96.8686 168° South 101 116 1,900  Level Fort Worth Center

Login

Don't have an account? Register now (free) for customized features, flight alerts, and more!